createdAt,value
2018-08-11T00:00:26.889Z,18.08
2018-08-11T00:02:19.704Z,18.29
2018-08-11T00:03:19.665Z,18.28
2018-08-11T00:05:12.488Z,18.29
2018-08-11T00:06:12.445Z,18.31
2018-08-11T00:08:05.275Z,18.35
2018-08-11T00:09:05.235Z,18.31
2018-08-11T00:10:58.047Z,18.33
2018-08-11T00:11:58.009Z,18.29
2018-08-11T00:13:50.853Z,18.28
2018-08-11T00:14:50.788Z,18.33
2018-08-11T00:16:44.128Z,18.33
2018-08-11T00:17:44.084Z,18.40
2018-08-11T00:19:37.419Z,18.37
2018-08-11T00:20:37.364Z,18.37
2018-08-11T00:22:30.173Z,18.44
2018-08-11T00:23:30.135Z,18.44
2018-08-11T00:25:22.965Z,18.49
2018-08-11T00:26:22.923Z,18.52
2018-08-11T00:28:15.734Z,18.44
2018-08-11T00:29:15.706Z,18.49
2018-08-11T00:31:09.011Z,18.55
2018-08-11T00:32:08.961Z,18.58
2018-08-11T00:34:02.291Z,18.58
2018-08-11T00:35:02.246Z,18.59
2018-08-11T00:36:55.568Z,18.71
2018-08-11T00:37:55.531Z,18.59
2018-08-11T00:39:48.341Z,18.78
2018-08-11T00:40:48.295Z,18.74
2018-08-11T00:42:41.125Z,18.77
2018-08-11T00:43:41.079Z,18.84
2018-08-11T00:45:33.907Z,18.92
2018-08-11T00:46:33.852Z,18.92
2018-08-11T00:48:26.661Z,18.98
2018-08-11T00:49:26.682Z,18.93
2018-08-11T00:51:19.477Z,18.95
2018-08-11T00:52:19.421Z,18.93
2018-08-11T00:54:12.229Z,19.07
2018-08-11T00:55:12.212Z,19.08
2018-08-11T00:57:05.021Z,19.14
2018-08-11T00:58:04.976Z,19.02
2018-08-11T00:59:57.790Z,19.14
2018-08-11T01:00:57.753Z,19.15
2018-08-11T01:02:50.593Z,19.14
2018-08-11T01:03:50.541Z,19.15
2018-08-11T01:05:43.361Z,19.14
2018-08-11T01:06:43.318Z,19.14
2018-08-11T01:08:36.651Z,19.21
2018-08-11T01:09:36.671Z,19.19
2018-08-11T01:11:29.401Z,19.21
2018-08-11T01:12:29.372Z,19.19
2018-08-11T01:14:22.715Z,19.26
2018-08-11T01:15:22.672Z,19.22
2018-08-11T01:17:15.497Z,19.16
2018-08-11T01:18:15.436Z,19.26
2018-08-11T01:20:08.326Z,19.24
2018-08-11T01:21:08.288Z,19.12
2018-08-11T01:23:01.612Z,19.18
2018-08-11T01:24:01.573Z,19.21
2018-08-11T01:25:54.402Z,19.08
2018-08-11T01:26:54.338Z,19.07
2018-08-11T01:28:47.173Z,19.14
2018-08-11T01:29:47.134Z,19.09
2018-08-11T01:31:39.965Z,19.04
2018-08-11T01:32:39.941Z,19.07
2018-08-11T01:34:33.228Z,18.98
2018-08-11T01:35:33.192Z,18.88
2018-08-11T01:37:26.033Z,18.62
2018-08-11T01:38:25.973Z,18.55
2018-08-11T01:40:18.778Z,18.00
2018-08-11T01:41:18.754Z,17.98
2018-08-11T01:43:11.578Z,17.89
2018-08-11T01:44:11.551Z,17.70
2018-08-11T01:46:04.353Z,17.54
2018-08-11T01:47:04.314Z,17.51
2018-08-11T01:48:57.150Z,17.22
2018-08-11T01:49:57.109Z,16.91
2018-08-11T01:51:49.918Z,16.97
2018-08-11T01:52:49.894Z,17.09
2018-08-11T01:54:43.209Z,17.01
2018-08-11T01:55:43.156Z,16.97
2018-08-11T01:57:36.111Z,16.94
2018-08-11T01:58:35.942Z,16.99
2018-08-11T02:00:29.263Z,17.01
2018-08-11T02:01:29.238Z,17.04
2018-08-11T02:03:22.549Z,16.96
2018-08-11T02:04:22.499Z,16.97
2018-08-11T02:06:15.313Z,16.90
2018-08-11T02:07:15.284Z,16.87
2018-08-11T02:09:08.094Z,16.66
2018-08-11T02:10:08.068Z,16.71
2018-08-11T02:12:01.359Z,16.72
2018-08-11T02:13:01.323Z,16.66
2018-08-11T02:14:54.168Z,16.72
2018-08-11T02:15:54.124Z,16.66
2018-08-11T02:17:47.433Z,16.68
2018-08-11T02:18:47.384Z,16.60
2018-08-11T02:20:40.713Z,16.54
2018-08-11T02:21:40.680Z,16.58
2018-08-11T02:23:33.488Z,16.69
2018-08-11T02:24:33.431Z,16.61
2018-08-11T02:26:26.254Z,16.66
2018-08-11T02:27:26.213Z,16.57
2018-08-11T02:29:19.065Z,16.64
2018-08-11T02:30:19.004Z,16.66
2018-08-11T02:32:11.809Z,16.66
2018-08-11T02:33:11.781Z,16.60
2018-08-11T02:35:04.610Z,16.53
2018-08-11T02:36:04.550Z,16.57
2018-08-11T02:37:57.366Z,16.53
2018-08-11T02:38:57.331Z,16.42
2018-08-11T02:40:50.163Z,16.43
2018-08-11T02:41:50.112Z,16.47
2018-08-11T02:43:42.925Z,16.50
2018-08-11T02:44:42.875Z,16.51
2018-08-11T02:46:35.697Z,16.54
2018-08-11T02:47:35.656Z,16.53
2018-08-11T02:49:28.475Z,16.58
2018-08-11T02:50:28.439Z,16.57
2018-08-11T02:52:21.262Z,16.57
2018-08-11T02:53:21.230Z,16.43
2018-08-11T02:55:14.039Z,16.53
2018-08-11T02:56:13.989Z,16.54
2018-08-11T02:58:06.835Z,16.54
2018-08-11T02:59:06.796Z,16.54
2018-08-11T03:00:59.596Z,16.50
2018-08-11T03:01:59.561Z,16.57
2018-08-11T03:03:52.876Z,16.50
2018-08-11T03:04:52.836Z,16.50
2018-08-11T03:06:45.676Z,16.57
2018-08-11T03:07:45.615Z,16.53
2018-08-11T03:09:38.931Z,16.53
2018-08-11T03:10:38.885Z,16.35
2018-08-11T03:12:31.722Z,16.15
2018-08-11T03:13:31.673Z,16.15
2018-08-11T03:15:24.981Z,16.21
2018-08-11T03:16:24.944Z,16.20
2018-08-11T03:18:17.766Z,16.21
2018-08-11T03:19:17.728Z,16.17
2018-08-11T03:21:10.556Z,16.32
2018-08-11T03:22:10.497Z,16.29
2018-08-11T03:24:03.300Z,16.28
2018-08-11T03:25:03.278Z,16.28
2018-08-11T03:26:56.596Z,16.28
2018-08-11T03:27:56.545Z,16.12
2018-08-11T03:29:49.348Z,16.23
2018-08-11T03:30:49.323Z,16.15
2018-08-11T03:32:42.181Z,16.17
2018-08-11T03:33:42.087Z,16.20
2018-08-11T03:35:35.418Z,16.24
2018-08-11T03:36:35.377Z,16.15
2018-08-11T03:38:28.205Z,16.16
2018-08-11T03:39:28.156Z,16.16
2018-08-11T03:41:21.461Z,16.09
2018-08-11T03:42:21.441Z,16.04
2018-08-11T03:44:14.733Z,16.01
2018-08-11T03:45:14.702Z,16.10
2018-08-11T03:47:07.514Z,16.08
2018-08-11T03:48:07.463Z,16.08
2018-08-11T03:50:00.793Z,16.01
2018-08-11T03:51:00.755Z,15.98
2018-08-11T03:52:54.036Z,16.01
2018-08-11T03:53:53.998Z,16.04
2018-08-11T03:55:47.312Z,15.97
2018-08-11T03:56:47.272Z,15.90
2018-08-11T03:58:40.591Z,16.00
2018-08-11T03:59:40.562Z,16.05
2018-08-11T04:01:33.392Z,15.97
2018-08-11T04:02:33.357Z,16.01
2018-08-11T04:04:26.161Z,15.98
2018-08-11T04:05:26.108Z,15.95
2018-08-11T04:07:18.913Z,15.83
2018-08-11T04:08:18.902Z,15.80
2018-08-11T04:10:11.712Z,15.58
2018-08-11T04:11:11.658Z,15.58
2018-08-11T04:13:04.979Z,15.39
2018-08-11T04:14:04.923Z,15.46
2018-08-11T04:15:58.238Z,15.55
2018-08-11T04:16:58.192Z,15.52
2018-08-11T04:18:50.993Z,15.68
2018-08-11T04:19:50.960Z,15.54
2018-08-11T04:21:43.782Z,15.64
2018-08-11T04:22:43.742Z,15.64
2018-08-11T04:24:37.089Z,15.64
2018-08-11T04:25:37.045Z,15.68
2018-08-11T04:27:29.834Z,15.76
2018-08-11T04:28:29.800Z,15.68
2018-08-11T04:30:22.625Z,15.73
2018-08-11T04:31:22.568Z,15.79
2018-08-11T04:33:15.384Z,15.73
2018-08-11T04:34:15.356Z,15.82
2018-08-11T04:36:08.172Z,15.76
2018-08-11T04:37:08.133Z,15.72
2018-08-11T04:39:00.928Z,15.70
2018-08-11T04:40:00.899Z,15.68
2018-08-11T04:41:53.756Z,15.64
2018-08-11T04:42:53.674Z,15.75
2018-08-11T04:44:46.493Z,15.64
2018-08-11T04:45:46.451Z,15.70
2018-08-11T04:47:39.765Z,15.75
2018-08-11T04:48:39.720Z,15.88
2018-08-11T04:50:32.541Z,15.88
2018-08-11T04:51:32.496Z,15.79
2018-08-11T04:53:25.301Z,15.90
2018-08-11T04:54:25.287Z,15.92
2018-08-11T04:56:18.081Z,15.92
2018-08-11T04:57:18.036Z,15.91
2018-08-11T04:59:10.846Z,15.86
2018-08-11T05:00:10.809Z,15.88
2018-08-11T05:02:04.145Z,15.84
2018-08-11T05:03:04.086Z,15.90
2018-08-11T05:04:56.901Z,15.90
2018-08-11T05:05:56.874Z,15.86
2018-08-11T05:07:49.700Z,15.83
2018-08-11T05:08:49.674Z,15.86
2018-08-11T05:10:42.462Z,15.91
2018-08-11T05:11:42.425Z,15.91
2018-08-11T05:13:35.241Z,15.90
2018-08-11T05:14:35.197Z,16.00
2018-08-11T05:16:28.007Z,15.91
2018-08-11T05:17:27.981Z,15.95
2018-08-11T05:19:21.392Z,15.98
2018-08-11T05:20:21.252Z,16.01
2018-08-11T05:22:14.062Z,16.00
2018-08-11T05:23:14.020Z,15.97
2018-08-11T05:25:06.852Z,15.97
2018-08-11T05:26:06.798Z,16.01
2018-08-11T05:27:59.630Z,16.05
2018-08-11T05:28:59.585Z,16.05
2018-08-11T05:30:52.896Z,16.15
2018-08-11T05:31:52.852Z,16.21
2018-08-11T05:33:45.677Z,16.10
2018-08-11T05:34:45.623Z,16.17
2018-08-11T05:36:38.941Z,16.35
2018-08-11T05:37:38.906Z,16.29
2018-08-11T05:39:31.731Z,16.46
2018-08-11T05:40:31.686Z,16.46
2018-08-11T05:42:24.501Z,16.49
2018-08-11T05:43:24.462Z,16.50
2018-08-11T05:45:17.286Z,16.53
2018-08-11T05:46:17.248Z,16.66
2018-08-11T05:48:10.061Z,16.68
2018-08-11T05:49:10.027Z,16.68
2018-08-11T05:51:02.833Z,16.53
2018-08-11T05:52:02.801Z,16.54
2018-08-11T05:53:55.622Z,16.68
2018-08-11T05:54:55.576Z,16.68
2018-08-11T05:56:48.377Z,16.75
2018-08-11T05:57:48.343Z,16.78
2018-08-11T05:59:41.189Z,16.66
2018-08-11T06:00:41.128Z,16.74
2018-08-11T06:02:34.474Z,16.76
2018-08-11T06:03:34.434Z,16.69
2018-08-11T06:05:27.289Z,16.66
2018-08-11T06:06:27.208Z,16.83
2018-08-11T06:08:20.032Z,16.81
2018-08-11T06:09:19.988Z,16.86
2018-08-11T06:11:12.914Z,16.97
2018-08-11T06:12:12.853Z,16.94
2018-08-11T06:14:05.682Z,17.02
2018-08-11T06:15:05.633Z,17.12
2018-08-11T06:16:58.952Z,17.19
2018-08-11T06:17:58.937Z,17.20
2018-08-11T06:19:51.998Z,17.30
2018-08-11T06:20:51.713Z,17.34
2018-08-11T06:22:45.025Z,17.36
2018-08-11T06:23:45.024Z,17.36
2018-08-11T06:25:37.822Z,17.48
2018-08-11T06:26:37.784Z,17.46
2018-08-11T06:28:30.587Z,17.48
2018-08-11T06:29:30.553Z,17.54
2018-08-11T06:31:23.428Z,17.52
2018-08-11T06:32:23.334Z,17.57
2018-08-11T06:34:16.164Z,17.63
2018-08-11T06:35:16.114Z,17.59
2018-08-11T06:37:08.930Z,17.68
2018-08-11T06:38:08.884Z,17.65
2018-08-11T06:40:01.729Z,17.64
2018-08-11T06:41:01.969Z,17.63
2018-08-11T06:42:54.509Z,17.70
2018-08-11T06:43:54.473Z,17.65
2018-08-11T06:45:47.299Z,17.72
2018-08-11T06:46:47.299Z,17.65
2018-08-11T06:48:40.078Z,17.63
2018-08-11T06:49:40.026Z,17.68
2018-08-11T06:51:32.848Z,17.76
2018-08-11T06:52:32.809Z,17.67
2018-08-11T06:54:26.135Z,17.80
2018-08-11T06:55:26.114Z,17.78
2018-08-11T06:57:18.920Z,17.63
2018-08-11T06:58:18.875Z,17.68
2018-08-11T07:00:11.711Z,17.70
2018-08-11T07:01:11.658Z,17.64
2018-08-11T07:03:04.969Z,17.82
2018-08-11T07:04:05.018Z,17.87
2018-08-11T07:05:58.280Z,17.82
2018-08-11T07:06:58.221Z,17.82
2018-08-11T07:08:51.505Z,17.95
2018-08-11T07:09:51.480Z,18.00
2018-08-11T07:11:44.810Z,17.85
2018-08-11T07:12:44.761Z,17.95
2018-08-11T07:14:37.720Z,17.92
2018-08-11T07:15:37.696Z,17.94
2018-08-11T07:17:31.005Z,18.01
2018-08-11T07:18:30.956Z,18.05
2018-08-11T07:20:23.769Z,17.92
2018-08-11T07:21:23.779Z,17.95
2018-08-11T07:23:16.577Z,18.10
2018-08-11T07:24:16.510Z,18.04
2018-08-11T07:26:09.341Z,18.03
2018-08-11T07:27:09.296Z,18.04
2018-08-11T07:29:02.120Z,18.19
2018-08-11T07:30:02.092Z,18.18
2018-08-11T07:31:55.408Z,18.16
2018-08-11T07:32:55.356Z,18.25
2018-08-11T07:34:48.172Z,18.31
2018-08-11T07:35:48.131Z,18.33
2018-08-11T07:37:40.978Z,18.49
2018-08-11T07:38:40.923Z,18.50
2018-08-11T07:40:33.741Z,18.60
2018-08-11T07:41:33.706Z,18.59
2018-08-11T07:43:26.538Z,18.65
2018-08-11T07:44:26.477Z,18.62
2018-08-11T07:46:19.295Z,18.59
2018-08-11T07:47:19.258Z,18.53
2018-08-11T07:49:12.085Z,18.65
2018-08-11T07:50:12.063Z,18.59
2018-08-11T07:52:04.867Z,18.74
2018-08-11T07:53:04.816Z,18.86
2018-08-11T07:54:57.698Z,18.78
2018-08-11T07:55:57.662Z,18.77
2018-08-11T07:57:50.437Z,18.88
2018-08-11T07:58:50.396Z,18.92
2018-08-11T08:00:43.207Z,18.99
2018-08-11T08:01:43.174Z,19.04
2018-08-11T08:03:36.001Z,19.12
2018-08-11T08:04:35.953Z,19.16
2018-08-11T08:06:28.774Z,19.24
2018-08-11T08:07:28.732Z,19.26
2018-08-11T08:09:21.573Z,19.30
2018-08-11T08:10:21.522Z,19.26
2018-08-11T08:12:14.342Z,19.08
2018-08-11T08:13:14.298Z,19.02
2018-08-11T08:15:07.137Z,19.15
2018-08-11T08:16:07.098Z,19.07
2018-08-11T08:17:59.912Z,19.26
2018-08-11T08:18:59.887Z,19.15
2018-08-11T08:20:52.712Z,19.08
2018-08-11T08:21:52.662Z,19.22
2018-08-11T08:23:45.469Z,19.24
2018-08-11T08:24:45.447Z,19.26
2018-08-11T08:26:38.886Z,19.31
2018-08-11T08:27:38.719Z,19.36
2018-08-11T08:29:31.525Z,19.44
2018-08-11T08:30:31.494Z,19.44
2018-08-11T08:32:24.330Z,19.29
2018-08-11T08:33:24.279Z,19.34
2018-08-11T08:35:17.584Z,19.45
2018-08-11T08:36:17.547Z,19.48
2018-08-11T08:38:10.384Z,19.55
2018-08-11T08:39:10.334Z,19.52
2018-08-11T08:41:03.155Z,19.44
2018-08-11T08:42:03.106Z,19.30
2018-08-11T08:43:55.951Z,19.51
2018-08-11T08:44:55.894Z,19.64
2018-08-11T08:46:49.220Z,19.74
2018-08-11T08:47:49.189Z,19.64
2018-08-11T08:49:42.007Z,19.73
2018-08-11T08:50:41.974Z,19.81
2018-08-11T08:52:34.786Z,19.82
2018-08-11T08:53:34.748Z,19.82
2018-08-11T08:55:27.579Z,20.00
2018-08-11T08:56:27.531Z,20.13
2018-08-11T08:58:20.349Z,20.07
2018-08-11T08:59:20.318Z,20.04
2018-08-11T09:01:13.631Z,20.00
2018-08-11T09:02:13.592Z,19.94
2018-08-11T09:04:06.424Z,19.66
2018-08-11T09:05:06.382Z,19.73
2018-08-11T09:06:59.201Z,19.85
2018-08-11T09:07:59.179Z,19.91
2018-08-11T09:09:52.000Z,20.03
2018-08-11T09:10:51.977Z,20.06
2018-08-11T09:12:44.779Z,20.13
2018-08-11T09:13:44.746Z,20.22
2018-08-11T09:15:37.580Z,20.06
2018-08-11T09:16:37.531Z,20.14
2018-08-11T09:18:30.855Z,20.09
2018-08-11T09:19:30.843Z,20.16
2018-08-11T09:21:23.627Z,20.18
2018-08-11T09:22:23.589Z,20.16
2018-08-11T09:24:16.415Z,20.50
2018-08-11T09:25:16.369Z,20.74
2018-08-11T09:27:09.695Z,20.60
2018-08-11T09:28:09.650Z,20.65
2018-08-11T09:30:02.473Z,20.34
2018-08-11T09:31:02.420Z,20.21
2018-08-11T09:32:55.251Z,20.31
2018-08-11T09:33:55.210Z,20.34
2018-08-11T09:35:48.020Z,20.34
2018-08-11T09:36:48.001Z,20.29
2018-08-11T09:38:41.316Z,20.47
2018-08-11T09:39:41.278Z,20.52
2018-08-11T09:41:34.107Z,20.63
2018-08-11T09:42:34.072Z,20.74
2018-08-11T09:44:26.892Z,20.90
2018-08-11T09:45:26.857Z,20.96
2018-08-11T09:47:19.700Z,21.09
2018-08-11T09:48:19.640Z,21.05
2018-08-11T09:50:12.477Z,20.95
2018-08-11T09:51:12.420Z,20.93
2018-08-11T09:53:05.732Z,20.92
2018-08-11T09:54:05.702Z,20.85
2018-08-11T09:55:58.537Z,20.92
2018-08-11T09:56:58.475Z,21.09
2018-08-11T09:58:51.473Z,21.11
2018-08-11T09:59:51.268Z,21.03
2018-08-11T10:01:44.117Z,21.18
2018-08-11T10:02:44.062Z,21.21
2018-08-11T10:04:36.877Z,21.12
2018-08-11T10:05:36.837Z,21.17
2018-08-11T10:07:29.682Z,21.51
2018-08-11T10:08:29.643Z,21.91
2018-08-11T10:10:22.466Z,22.57
2018-08-11T10:11:22.432Z,22.76
2018-08-11T10:13:15.252Z,23.10
2018-08-11T10:14:15.217Z,22.91
2018-08-11T10:16:08.047Z,22.88
2018-08-11T10:17:08.024Z,22.80
2018-08-11T10:19:00.841Z,22.70
2018-08-11T10:20:00.808Z,22.90
2018-08-11T10:21:54.156Z,23.95
2018-08-11T10:22:54.103Z,24.01
2018-08-11T10:24:46.940Z,24.17
2018-08-11T10:25:46.903Z,24.20
2018-08-11T10:27:39.772Z,24.61
2018-08-11T10:28:39.743Z,24.78
2018-08-11T10:30:32.562Z,25.32
2018-08-11T10:31:32.529Z,25.47
2018-08-11T10:33:25.863Z,25.73
2018-08-11T10:34:25.819Z,25.78
2018-08-11T10:36:18.654Z,26.59
2018-08-11T10:37:18.624Z,26.70
2018-08-11T10:39:11.963Z,26.25
2018-08-11T10:40:11.962Z,26.38
2018-08-11T10:42:04.759Z,27.27
2018-08-11T10:43:04.733Z,27.64
2018-08-11T10:44:57.576Z,27.89
2018-08-11T10:45:57.537Z,28.08
2018-08-11T10:47:50.386Z,27.52
2018-08-11T10:48:50.343Z,27.14
2018-08-11T10:50:43.198Z,27.05
2018-08-11T10:51:43.168Z,27.10
2018-08-11T10:53:36.004Z,26.07
2018-08-11T10:54:35.954Z,25.91
2018-08-11T10:56:29.283Z,26.84
2018-08-11T10:57:29.253Z,27.27
2018-08-11T10:59:22.590Z,27.39
2018-08-11T11:00:22.554Z,26.88
2018-08-11T11:02:15.875Z,26.62
2018-08-11T11:03:15.855Z,26.44
2018-08-11T11:05:08.705Z,25.55
2018-08-11T11:06:08.653Z,25.14
2018-08-11T11:08:01.486Z,25.35
2018-08-11T11:09:01.449Z,25.23
2018-08-11T11:10:54.303Z,25.33
2018-08-11T11:11:54.253Z,25.73
2018-08-11T11:13:47.089Z,26.28
2018-08-11T11:14:47.044Z,26.22
2018-08-11T11:16:39.879Z,26.68
2018-08-11T11:17:39.859Z,27.11
2018-08-11T11:19:32.696Z,26.81
2018-08-11T11:20:32.662Z,26.75
2018-08-11T11:22:25.495Z,26.74
2018-08-11T11:23:25.472Z,26.68
2018-08-11T11:25:18.801Z,26.77
2018-08-11T11:26:18.777Z,26.65
2018-08-11T11:28:11.651Z,26.31
2018-08-11T11:29:11.576Z,26.23
2018-08-11T11:31:04.414Z,26.66
2018-08-11T11:32:04.376Z,26.73
2018-08-11T11:33:57.195Z,27.02
2018-08-11T11:34:57.179Z,26.88
2018-08-11T11:36:50.012Z,27.17
2018-08-11T11:37:49.974Z,27.11
2018-08-11T11:39:42.817Z,27.37
2018-08-11T11:40:42.778Z,27.64
2018-08-11T11:42:35.607Z,27.67
2018-08-11T11:43:35.570Z,27.49
2018-08-11T11:45:28.424Z,27.59
2018-08-11T11:46:28.391Z,27.07
2018-08-11T11:48:21.696Z,26.96
2018-08-11T11:49:21.686Z,27.32
2018-08-11T11:51:14.537Z,26.89
2018-08-11T11:52:14.484Z,27.14
2018-08-11T11:54:07.307Z,27.59
2018-08-11T11:55:07.287Z,27.85
2018-08-11T11:57:00.118Z,26.95
2018-08-11T11:58:00.102Z,26.96
2018-08-11T11:59:53.436Z,27.39
2018-08-11T12:00:53.385Z,27.27
2018-08-11T12:02:46.300Z,27.51
2018-08-11T12:03:46.261Z,27.59
2018-08-11T12:05:39.124Z,26.71
2018-08-11T12:06:39.069Z,26.84
2018-08-11T12:08:31.905Z,26.88
2018-08-11T12:09:31.862Z,27.39
2018-08-11T12:11:24.721Z,27.86
2018-08-11T12:12:24.687Z,27.77
2018-08-11T12:14:17.518Z,27.65
2018-08-11T12:15:17.491Z,27.60
2018-08-11T12:17:10.331Z,27.64
2018-08-11T12:18:10.298Z,28.11
2018-08-11T12:20:03.109Z,27.80
2018-08-11T12:21:03.100Z,27.42
2018-08-11T12:22:55.943Z,26.93
2018-08-11T12:23:55.917Z,26.92
2018-08-11T12:25:48.717Z,26.43
2018-08-11T12:26:48.706Z,27.03
2018-08-11T12:28:41.557Z,27.11
2018-08-11T12:29:41.511Z,27.25
2018-08-11T12:31:34.357Z,27.14
2018-08-11T12:32:34.311Z,27.63
2018-08-11T12:34:27.636Z,27.51
2018-08-11T12:35:27.621Z,27.60
2018-08-11T12:37:20.498Z,27.18
2018-08-11T12:38:20.452Z,27.10
2018-08-11T12:40:13.305Z,27.25
2018-08-11T12:41:13.242Z,27.15
2018-08-11T12:43:06.087Z,26.62
2018-08-11T12:44:06.042Z,26.29
2018-08-11T12:45:58.944Z,26.44
2018-08-11T12:46:58.868Z,26.55
2018-08-11T12:48:51.699Z,26.89
2018-08-11T12:49:51.662Z,26.95
2018-08-11T12:51:44.489Z,26.85
2018-08-11T12:52:44.458Z,27.15
2018-08-11T12:54:37.308Z,27.22
2018-08-11T12:55:37.268Z,27.52
2018-08-11T12:57:30.098Z,27.54
2018-08-11T12:58:30.060Z,27.59
2018-08-11T13:00:23.384Z,27.59
2018-08-11T13:01:23.359Z,27.60
2018-08-11T13:03:16.206Z,27.90
2018-08-11T13:04:16.163Z,28.17
2018-08-11T13:06:09.005Z,28.49
2018-08-11T13:07:08.964Z,28.37
2018-08-11T13:09:01.784Z,28.66
2018-08-11T13:10:01.763Z,28.78
2018-08-11T13:11:54.604Z,28.81
2018-08-11T13:12:54.565Z,28.35
2018-08-11T13:14:47.402Z,27.35
2018-08-11T13:15:47.364Z,27.35
2018-08-11T13:17:40.325Z,27.33
2018-08-11T13:18:40.160Z,27.40
2018-08-11T13:20:33.081Z,27.60
2018-08-11T13:21:32.973Z,28.07
2018-08-11T13:23:25.795Z,28.48
2018-08-11T13:24:25.769Z,28.59
2018-08-11T13:26:19.107Z,28.72
2018-08-11T13:27:19.060Z,28.56
2018-08-11T13:29:11.895Z,28.52
2018-08-11T13:30:11.874Z,28.41
2018-08-11T13:32:05.221Z,28.32
2018-08-11T13:33:05.179Z,28.33
2018-08-11T13:34:58.031Z,28.42
2018-08-11T13:35:58.008Z,28.56
2018-08-11T13:37:51.315Z,28.30
2018-08-11T13:38:51.289Z,28.23
2018-08-11T13:40:44.136Z,28.04
2018-08-11T13:41:44.092Z,28.32
2018-08-11T13:43:36.934Z,28.74
2018-08-11T13:44:36.888Z,28.79
2018-08-11T13:46:29.739Z,29.05
2018-08-11T13:47:29.711Z,28.82
2018-08-11T13:49:23.017Z,28.57
2018-08-11T13:50:22.995Z,28.30
2018-08-11T13:52:15.843Z,28.27
2018-08-11T13:53:15.789Z,28.69
2018-08-11T13:55:09.233Z,28.85
2018-08-11T13:56:09.091Z,28.82
2018-08-11T13:58:02.429Z,28.82
2018-08-11T13:59:02.391Z,28.70
2018-08-11T14:00:55.241Z,28.20
2018-08-11T14:01:55.191Z,28.37
2018-08-11T14:03:48.511Z,27.90
2018-08-11T14:04:48.486Z,28.42
2018-08-11T14:06:41.356Z,28.54
2018-08-11T14:07:41.285Z,28.76
2018-08-11T14:09:34.119Z,28.93
2018-08-11T14:10:34.096Z,28.69
2018-08-11T14:12:26.952Z,28.75
2018-08-11T14:13:26.897Z,28.79
2018-08-11T14:15:19.746Z,28.52
2018-08-11T14:16:19.717Z,27.87
2018-08-11T14:18:13.906Z,28.19
2018-08-11T14:19:13.861Z,28.11
2018-08-11T14:21:07.200Z,28.15
2018-08-11T14:22:07.169Z,28.26
2018-08-11T14:24:00.033Z,28.42
2018-08-11T14:24:59.978Z,27.96
2018-08-11T14:26:52.831Z,28.23
2018-08-11T14:27:52.783Z,28.12
2018-08-11T14:29:45.609Z,27.93
2018-08-11T14:30:45.581Z,27.90
2018-08-11T14:32:38.478Z,27.77
2018-08-11T14:33:38.383Z,27.89
2018-08-11T14:35:31.905Z,27.93
2018-08-11T14:36:31.673Z,27.85
2018-08-11T14:38:25.012Z,27.67
2018-08-11T14:39:24.968Z,27.65
2018-08-11T14:41:17.807Z,27.89
2018-08-11T14:42:17.797Z,28.22
2018-08-11T14:44:11.128Z,28.30
2018-08-11T14:45:11.079Z,28.51
2018-08-11T14:47:03.917Z,28.59
2018-08-11T14:48:03.956Z,28.47
2018-08-11T14:49:56.722Z,28.39
2018-08-11T14:50:56.678Z,28.07
2018-08-11T14:52:50.033Z,27.89
2018-08-11T14:53:49.988Z,27.77
2018-08-11T14:55:42.821Z,28.08
2018-08-11T14:56:42.778Z,28.05
2018-08-11T14:58:36.118Z,28.37
2018-08-11T14:59:36.092Z,28.45
2018-08-11T15:01:28.927Z,28.49
2018-08-11T15:02:28.894Z,28.44
2018-08-11T15:04:21.746Z,28.70
2018-08-11T15:05:21.704Z,28.69
2018-08-11T15:07:14.523Z,28.57
2018-08-11T15:08:14.497Z,28.79
2018-08-11T15:10:07.391Z,29.27
2018-08-11T15:11:07.367Z,29.38
2018-08-11T15:13:00.135Z,29.17
2018-08-11T15:14:00.110Z,28.76
2018-08-11T15:15:52.992Z,28.26
2018-08-11T15:16:52.914Z,28.49
2018-08-11T15:18:45.749Z,28.52
2018-08-11T15:19:45.710Z,28.25
2018-08-11T15:21:38.554Z,28.44
2018-08-11T15:22:38.528Z,28.69
2018-08-11T15:24:31.378Z,28.76
2018-08-11T15:25:31.323Z,28.85
2018-08-11T15:27:24.640Z,28.30
2018-08-11T15:28:24.619Z,28.32
2018-08-11T15:30:17.951Z,28.47
2018-08-11T15:31:17.914Z,28.35
2018-08-11T15:33:10.729Z,28.82
2018-08-11T15:34:10.706Z,28.91
2018-08-11T15:36:04.055Z,28.54
2018-08-11T15:37:04.011Z,28.54
2018-08-11T15:38:57.388Z,28.57
2018-08-11T15:39:57.352Z,28.63
2018-08-11T15:41:50.187Z,28.27
2018-08-11T15:42:50.146Z,28.39
2018-08-11T15:44:43.500Z,28.56
2018-08-11T15:45:43.436Z,28.38
2018-08-11T15:47:36.277Z,28.22
2018-08-11T15:48:36.255Z,28.15
2018-08-11T15:50:29.084Z,27.77
2018-08-11T15:51:29.049Z,27.92
2018-08-11T15:53:21.876Z,28.30
2018-08-11T15:54:21.950Z,28.37
2018-08-11T15:56:14.707Z,28.23
2018-08-11T15:57:14.661Z,28.26
2018-08-11T15:59:07.992Z,28.37
2018-08-11T16:00:07.956Z,28.37
2018-08-11T16:02:01.285Z,27.49
2018-08-11T16:03:01.248Z,27.48
2018-08-11T16:04:54.109Z,27.95
2018-08-11T16:05:54.052Z,28.11
2018-08-11T16:07:47.389Z,27.85
2018-08-11T16:08:47.352Z,27.60
2018-08-11T16:10:40.672Z,27.64
2018-08-11T16:11:40.635Z,27.58
2018-08-11T16:13:33.976Z,27.17
2018-08-11T16:14:33.932Z,27.27
2018-08-11T16:16:26.781Z,27.73
2018-08-11T16:17:26.726Z,27.68
2018-08-11T16:19:20.045Z,27.80
2018-08-11T16:20:20.018Z,28.05
2018-08-11T16:22:12.867Z,27.87
2018-08-11T16:23:12.837Z,27.89
2018-08-11T16:25:05.660Z,27.89
2018-08-11T16:26:05.615Z,27.98
2018-08-11T16:27:58.464Z,27.30
2018-08-11T16:28:58.430Z,27.27
2018-08-11T16:30:51.246Z,27.30
2018-08-11T16:31:51.243Z,27.20
2018-08-11T16:33:44.560Z,27.02
2018-08-11T16:34:44.523Z,27.10
2018-08-11T16:36:37.347Z,27.08
2018-08-11T16:37:37.318Z,27.15
2018-08-11T16:39:30.200Z,26.70
2018-08-11T16:40:30.128Z,26.78
2018-08-11T16:42:22.976Z,26.85
2018-08-11T16:43:22.912Z,26.33
2018-08-11T16:45:15.745Z,26.19
2018-08-11T16:46:15.723Z,26.10
2018-08-11T16:48:08.548Z,26.51
2018-08-11T16:49:08.508Z,26.62
2018-08-11T16:51:01.817Z,26.16
2018-08-11T16:52:01.809Z,26.05
2018-08-11T16:53:54.732Z,25.91
2018-08-11T16:54:54.631Z,25.83
2018-08-11T16:56:47.421Z,25.85
2018-08-11T16:57:47.398Z,25.99
2018-08-11T16:59:40.296Z,26.28
2018-08-11T17:00:40.200Z,26.29
2018-08-11T17:02:33.028Z,26.22
2018-08-11T17:03:32.999Z,26.05
2018-08-11T17:05:25.841Z,26.21
2018-08-11T17:06:25.794Z,26.22
2018-08-11T17:08:19.152Z,26.19
2018-08-11T17:09:19.079Z,26.13
2018-08-11T17:11:12.394Z,26.02
2018-08-11T17:12:12.369Z,26.07
2018-08-11T17:14:05.203Z,25.85
2018-08-11T17:15:05.173Z,25.91
2018-08-11T17:16:58.483Z,25.90
2018-08-11T17:17:58.448Z,25.90
2018-08-11T17:19:51.288Z,26.09
2018-08-11T17:20:51.272Z,26.05
2018-08-11T17:22:44.067Z,26.06
2018-08-11T17:23:44.041Z,26.02
2018-08-11T17:25:36.870Z,25.88
2018-08-11T17:26:36.848Z,25.90
2018-08-11T17:28:29.654Z,25.85
2018-08-11T17:29:29.629Z,25.70
2018-08-11T17:31:22.954Z,25.55
2018-08-11T17:32:22.965Z,25.38
2018-08-11T17:34:15.745Z,25.18
2018-08-11T17:35:15.699Z,25.22
2018-08-11T17:37:08.530Z,25.28
2018-08-11T17:38:08.494Z,25.14
2018-08-11T17:40:01.339Z,25.06
2018-08-11T17:41:01.297Z,24.98
2018-08-11T17:42:54.610Z,24.78
2018-08-11T17:43:54.575Z,24.88
2018-08-11T17:45:47.414Z,24.91
2018-08-11T17:46:47.360Z,24.95
2018-08-11T17:48:40.189Z,25.04
2018-08-11T17:49:40.164Z,25.03
2018-08-11T17:51:33.010Z,24.93
2018-08-11T17:52:32.968Z,24.98
2018-08-11T17:54:25.786Z,25.03
2018-08-11T17:55:25.854Z,24.93
2018-08-11T17:57:19.111Z,24.86
2018-08-11T17:58:19.060Z,24.81
2018-08-11T18:00:11.909Z,24.81
2018-08-11T18:01:11.865Z,24.78
2018-08-11T18:03:05.180Z,24.60
2018-08-11T18:04:05.133Z,24.55
2018-08-11T18:05:57.970Z,24.45
2018-08-11T18:06:58.022Z,24.23
2018-08-11T18:08:50.751Z,23.91
2018-08-11T18:09:50.716Z,23.84
2018-08-11T18:11:43.556Z,23.92
2018-08-11T18:12:43.525Z,23.99
2018-08-11T18:14:36.366Z,24.03
2018-08-11T18:15:36.331Z,24.14
2018-08-11T18:17:29.170Z,24.06
2018-08-11T18:18:29.139Z,24.02
2018-08-11T18:20:21.954Z,23.98
2018-08-11T18:21:21.921Z,23.95
2018-08-11T18:23:15.239Z,23.77
2018-08-11T18:24:15.192Z,23.86
2018-08-11T18:26:08.033Z,23.71
2018-08-11T18:27:07.990Z,23.69
2018-08-11T18:29:00.827Z,23.71
2018-08-11T18:30:00.784Z,23.48
2018-08-11T18:31:53.597Z,23.47
2018-08-11T18:32:53.569Z,23.37